Home > Products > Valid Products > MTR

000
SAUS43 KUNR 300358
MTR2WX
METAR K2WX 300356Z AUTO 11008KT 08/03 A3022 RMK AO1 SLP243 T00780028





000
SAUS43 KUNR 300357
MTRD07
METAR KD07 300356Z AUTO 04004KT 06/02 A3029 RMK AO1 SLP272 T00610022





000
SAUS43 KUNR 300258
MTR2WX
METAR K2WX 300256Z AUTO 11007KT 09/03 A3021 RMK AO1 SLP239 T00890033
50003





000
SAUS43 KUNR 300258
MTRD07
METAR KD07 300256Z AUTO 03007KT 07/03 A3027 RMK AO1 SLP266 T00670028
50004





000
SAUS43 KUNR 300258
MTR2WX
METAR K2WX 300256Z AUTO 11007KT 09/03 A3021 RMK AO1 SLP239 T00890033
50003





000
SAUS43 KUNR 300258
MTRD07
METAR KD07 300256Z AUTO 03007KT 07/03 A3027 RMK AO1 SLP266 T00670028
50004





000
SAUS43 KUNR 300158
MTR2WX
METAR K2WX 300156Z AUTO 10006KT 11/04 A3021 RMK AO1 SLP238 T01110039





000
SAUS43 KUNR 300158
MTR2WX
METAR K2WX 300156Z AUTO 10006KT 11/04 A3021 RMK AO1 SLP238 T01110039





000
SAUS43 KUNR 300157
MTRD07
METAR KD07 300156Z AUTO 02007KT 09/03 A3027 RMK AO1 SLP264 T00940028





000
SAUS43 KUNR 300157
MTRD07
METAR KD07 300156Z AUTO 02007KT 09/03 A3027 RMK AO1 SLP264 T00940028





000
SAUS43 KUNR 300058
MTRD07
METAR KD07 300056Z AUTO 36010KT 11/02 A3027 RMK AO1 SLP259 T01110017





000
SAUS43 KUNR 300057
MTR2WX
METAR K2WX 300056Z AUTO 10007KT 13/03 A3021 RMK AO1 SLP235 T01280033





000
SAUS43 KUNR 292357
MTRD07
METAR KD07 292356Z AUTO 01011KT 12/02 A3026 RMK AO1 SLP256 T01220022
10133 20089 51005





000
SAUS43 KUNR 292357
MTR2WX
METAR K2WX 292356Z AUTO 05009KT 13/04 A3020 RMK AO1 SLP232 T01330039
10144 20106 56004





000
SAUS43 KUNR 292357
MTRD07
METAR KD07 292356Z AUTO 01011KT 12/02 A3026 RMK AO1 SLP256 T01220022
10133 20089 51005





000
SAUS43 KUNR 292357
MTR2WX
METAR K2WX 292356Z AUTO 05009KT 13/04 A3020 RMK AO1 SLP232 T01330039
10144 20106 56004





000
SAUS43 KUNR 292258
MTRD07
METAR KD07 292256Z AUTO 36011G18KT 12/03 A3026 RMK AO1 SLP254
T01220028





000
SAUS43 KUNR 292258
MTRD07
METAR KD07 292256Z AUTO 36011G18KT 12/03 A3026 RMK AO1 SLP254
T01220028





000
SAUS43 KUNR 292257
MTR2WX
METAR K2WX 292256Z AUTO 04007KT 14/03 A3021 RMK AO1 SLP231 T01440033





000
SAUS43 KUNR 292257
MTR2WX
METAR K2WX 292256Z AUTO 04007KT 14/03 A3021 RMK AO1 SLP231 T01440033





000
SAUS43 KUNR 292158
MTRD07
METAR KD07 292156Z AUTO 01011G22KT 12/03 A3026 RMK AO1 SLP251
T01220028





000
SAUS43 KUNR 292157
MTR2WX
METAR K2WX 292156Z AUTO 07009KT 13/03 A3021 RMK AO1 SLP233 T01280033





000
SAUS43 KUNR 292058
MTR2WX
METAR K2WX 292056Z AUTO 04009KT 12/03 A3022 RMK AO1 SLP234 T01220033
50001





000
SAUS43 KUNR 292058
MTR2WX
METAR K2WX 292056Z AUTO 04009KT 12/03 A3022 RMK AO1 SLP234 T01220033
50001





000
SAUS43 KUNR 292057
MTRD07
METAR KD07 292056Z AUTO 01016KT 12/03 A3024 RMK AO1 SLP245 T01220028
50002





000
SAUS43 KUNR 291957
MTRD07
METAR KD07 291956Z AUTO 35013G19KT 11/03 A3025 RMK AO1 SLP247
T01110028





000
SAUS43 KUNR 291957
MTR2WX
METAR K2WX 291956Z AUTO 36009G16KT 11/02 A3022 RMK AO1 SLP235
T01110017





000
SAUS43 KUNR 291858
MTRD07
METAR KD07 291856Z AUTO 01016KT 10/03 A3024 RMK AO1 SLP245 T01000033





000
SAUS43 KUNR 291857
MTR2WX
METAR K2WX 291856Z AUTO 34013KT 12/03 A3021 RMK AO1 SLP230 T01170028





000
SAUS43 KUNR 291757
MTR2WX
METAR K2WX 291756Z AUTO 35013KT 11/02 A3021 RMK AO1 SLP233 T01060022
10106 20072 51012





000
SAUS43 KUNR 291757
MTRD07
METAR KD07 291756Z AUTO 01014G22KT 09/05 A3024 RMK AO1 SLP246
T00890050 10089 20083 51021





000
SAUS43 KUNR 291757
MTRD07
METAR KD07 291756Z AUTO 01014G22KT 09/05 A3024 RMK AO1 SLP246
T00890050 10089 20083 51021





000
SAUS43 KUNR 291757
MTR2WX
METAR K2WX 291756Z AUTO 35013KT 11/02 A3021 RMK AO1 SLP233 T01060022
10106 20072 51012





000
SAUS43 KUNR 291658
MTRD07
METAR KD07 291656Z AUTO 36017G23KT 09/06 A3022 RMK AO1 PK WND
36026/1645 SLP240 T00890056





000
SAUS43 KUNR 291658
MTR2WX
METAR K2WX 291656Z AUTO 35012KT 09/03 A3021 RMK AO1 SLP233 T00940033





000
SAUS43 KUNR 291658
MTRD07
METAR KD07 291656Z AUTO 36017G23KT 09/06 A3022 RMK AO1 PK WND
36026/1645 SLP240 T00890056





000
SAUS43 KUNR 291658
MTR2WX
METAR K2WX 291656Z AUTO 35012KT 09/03 A3021 RMK AO1 SLP233 T00940033





000
SAUS43 KUNR 291557
MTRD07
METAR KD07 291556Z AUTO 36020G25KT 08/06 A3019 RMK AO1 PK WND
01027/1458 SLP230 T00830061





000
SAUS43 KUNR 291557
MTR2WX
METAR K2WX 291556Z AUTO 34015KT 09/04 A3019 RMK AO1 SLP225 T00890039





000
SAUS43 KUNR 291457
MTRD07
METAR KD07 291456Z AUTO 36021G27KT 08/07 A3017 RMK AO1 PK WND
01029/1404 SLP223 T00830067 51026





000
SAUS43 KUNR 291457
MTR2WX
METAR K2WX 291456Z AUTO 34014KT 08/06 A3018 RMK AO1 SLP221 T00830056
51017





000
SAUS43 KUNR 291457
MTRD07
METAR KD07 291456Z AUTO 36021G27KT 08/07 A3017 RMK AO1 PK WND
01029/1404 SLP223 T00830067 51026





000
SAUS43 KUNR 291457
MTR2WX
METAR K2WX 291456Z AUTO 34014KT 08/06 A3018 RMK AO1 SLP221 T00830056
51017





000
SAUS43 KUNR 291357
MTRD07
METAR KD07 291356Z AUTO 01021G27KT 08/07 A3015 RMK AO1 PK WND
36029/1311 SLP213 T00830067





000
SAUS43 KUNR 291357
MTR2WX
METAR K2WX 291356Z AUTO 34016KT 07/06 A3016 RMK AO1 SLP214 T00720056





000
SAUS43 KUNR 291258
MTR2WX
METAR K2WX 291256Z AUTO 36016KT 08/06 A3014 RMK AO1 SLP209 T00780061





000
SAUS43 KUNR 291258
MTR2WX
METAR K2WX 291256Z AUTO 36016KT 08/06 A3014 RMK AO1 SLP209 T00780061





000
SAUS43 KUNR 291257
MTRD07
METAR KD07 291256Z AUTO 36020G28KT 09/07 A3012 RMK AO1 PK WND
36028/1256 SLP201 T00890072





000
SAUS43 KUNR 291257
MTRD07
METAR KD07 291256Z AUTO 36020G28KT 09/07 A3012 RMK AO1 PK WND
36028/1256 SLP201 T00890072





000
SAUS43 KUNR 291158
MTR2WX
METAR K2WX 291156Z AUTO 35014KT 08/07 A3012 RMK AO1 SLP201 60018
70074 T00780067 10133 20078 53028





000
SAUS43 KUNR 291158
MTRD07
METAR KD07 291156Z AUTO 01018G26KT 09/08 A3009 RMK AO1 PK WND
36030/1122 SLP190 60012 70038 T00890078 10144 20089 53028





000
SAUS43 KUNR 291057
MTRD07
METAR KD07 291056Z AUTO 36021G26KT 10/08 A3006 RMK AO1 PK WND
01031/0957 SLP180 T01000083





000
SAUS43 KUNR 291057
MTRD07
METAR KD07 291056Z AUTO 36021G26KT 10/08 A3006 RMK AO1 PK WND
01031/0957 SLP180 T01000083





000
SAUS43 KUNR 291057
MTR2WX
METAR K2WX 291056Z AUTO 35016KT 08/07 A3008 RMK AO1 SLP183 T00830072





000
SAUS43 KUNR 291057
MTR2WX
METAR K2WX 291056Z AUTO 35016KT 08/07 A3008 RMK AO1 SLP183 T00830072





000
SAUS43 KUNR 290957
MTRD07
METAR KD07 290956Z AUTO 36026G31KT 12/11 A3001 RMK AO1 PK WND
01031/0955 SLP164 P0009 T01170106





000
SAUS43 KUNR 290957
MTR2WX
METAR K2WX 290956Z AUTO 35018G24KT 09/08 A3005 RMK AO1 SLP170
T00940083





000
SAUS43 KUNR 290857
MTR2WX
METAR K2WX 290856Z AUTO 02014G23KT 12/11 A3003 RMK AO1 SLP159 P0001
60018 T01220106 53010





000
SAUS43 KUNR 290857
MTRD07
METAR KD07 290856Z AUTO 35015KT 14/13 A3000 RMK AO1 SLP157 P0003
60003 T01440128 53015





000
SAUS43 KUNR 290757
MTR2WX
METAR K2WX 290756Z AUTO 01014KT 13/11 A3001 RMK AO1 SLP150 P0005
T01280111





000
SAUS43 KUNR 290757
MTRD07
METAR KD07 290756Z AUTO 36014KT 14/13 A2998 RMK AO1 SLP143 T01390128





000
SAUS43 KUNR 290657
MTR2WX
METAR K2WX 290656Z AUTO 36017KT 13/11 A3000 RMK AO1 SLP145 P0012
T01330111 402280111





000
SAUS43 KUNR 290657
MTRD07
METAR KD07 290656Z AUTO 34011KT 14/12 A2996 RMK AO1 SLP137 T01440117
402560106





000
SAUS43 KUNR 290558
MTR2WX
METAR K2WX 290556Z AUTO 32008KT 13/12 A3000 RMK AO1 WSHFT 0504
SLP147 P0008 60052 T01280117 10161 20128 51027





000
SAUS43 KUNR 290558
MTR2WX
METAR K2WX 290556Z AUTO 32008KT 13/12 A3000 RMK AO1 WSHFT 0504
SLP147 P0008 60052 T01280117 10161 20128 51027





000
SAUS43 KUNR 290557
MTRD07
METAR KD07 290556Z AUTO 35010KT 14/12 A2995 RMK AO1 SLP133 T01440117
10194 20144 50014





000
SAUS43 KUNR 290557
MTRD07
METAR KD07 290556Z AUTO 35010KT 14/12 A2995 RMK AO1 SLP133 T01440117
10194 20144 50014





000
SAUS43 KUNR 290525
MTR2WX
SPECI K2WX 290524Z AUTO 33012KT 13/12 A2998 RMK AO1 WSHFT 0504 P0002
T01330122





000
SAUS43 KUNR 290458
MTRD07
METAR KD07 290456Z AUTO 34008KT 14/12 A2996 RMK AO1 SLP136 T01440117





000
SAUS43 KUNR 290458
MTRD07
METAR KD07 290456Z AUTO 34008KT 14/12 A2996 RMK AO1 SLP136 T01440117





000
SAUS43 KUNR 290457
MTR2WX
METAR K2WX 290456Z AUTO 27008KT 13/12 A2997 RMK AO1 SLP137 P0002
T01330122





000
SAUS43 KUNR 290457
MTR2WX
METAR K2WX 290456Z AUTO 27008KT 13/12 A2997 RMK AO1 SLP137 P0002
T01330122





000
SAUS43 KUNR 290358
MTR2WX
METAR K2WX 290356Z AUTO 33004KT 14/12 A2996 RMK AO1 SLP135 T01390122





000
SAUS43 KUNR 290357
MTRD07
METAR KD07 290356Z AUTO 31011KT 15/12 A2994 RMK AO1 SLP131 T01500117





000
SAUS43 KUNR 290258
MTR2WX
METAR K2WX 290256Z AUTO 00000KT 14/12 A2991 RMK AO1 SLP119 P0019
60042 T01390122 51010





000
SAUS43 KUNR 290257
MTRD07
METAR KD07 290256Z AUTO 30007KT 15/12 A2990 RMK AO1 SLP123 T01500117
50008





000
SAUS43 KUNR 290158
MTR2WX
METAR K2WX 290156Z AUTO 35007KT 15/12 A2991 RMK AO1 SLP118 P0010
T01500122





000
SAUS43 KUNR 290158
MTR2WX
METAR K2WX 290156Z AUTO 35007KT 15/12 A2991 RMK AO1 SLP118 P0010
T01500122





000
SAUS43 KUNR 290157
MTRD07
METAR KD07 290156Z AUTO 28012KT 17/13 A2992 RMK AO1 SLP128 T01670128





000
SAUS43 KUNR 290057
MTR2WX
METAR K2WX 290056Z AUTO 19005KT 15/13 A2989 RMK AO1 SLP114 P0013
T01500128





000
SAUS43 KUNR 290057
MTR2WX
METAR K2WX 290056Z AUTO 19005KT 15/13 A2989 RMK AO1 SLP114 P0013
T01500128





000
SAUS43 KUNR 290057
MTRD07
METAR KD07 290056Z AUTO 27004KT 18/13 A2990 RMK AO1 SLP120 T01830133





000
SAUS43 KUNR 290057
MTRD07
METAR KD07 290056Z AUTO 27004KT 18/13 A2990 RMK AO1 SLP120 T01830133





000
SAUS43 KUNR 290005 COR
MTRD07
METAR KD07 282356Z AUTO 31009KT 18/13 A2988 RMK AO1 SLP115 P0001
60025 T01830133 10256 20150 58006





000
SAUS43 KUNR 290005 COR
MTRD07
METAR KD07 282356Z AUTO 31009KT 18/13 A2988 RMK AO1 SLP115 P0001
60025 T01830133 10256 20150 58006





000
SAUS43 KUNR 290002 COR
MTRD07
METAR KD07 282356Z AUTO 31009KT 18/13 A2988 RMK AO1 SLP115 P0001
60025 T01830133 10256 20150 58006





000
SAUS43 KUNR 290000 COR
MTRD07
METAR KD07 282356Z AUTO 31009KT 18/13 A2988 RMK AO1 SLP115 P0001
60025 T01830133 10256 20150 58006





000
SAUS43 KUNR 290000 COR
MTRD07
METAR KD07 282356Z AUTO 31009KT 18/13 A2988 RMK AO1 SLP115 P0001
60025 T01830133 10256 20150 58006





000
SAUS43 KUNR 282357
MTRD07
METAR KD07 282356Z AUTO 31009KT 18/13 A2988 RMK AO1 SLP115 P0001
60025 T01830133 10256 20150 58006





000
SAUS43 KUNR 282357
MTRD07
METAR KD07 282356Z AUTO 31009KT 18/13 A2988 RMK AO1 SLP115 P0001
60025 T01830133 10256 20150 58006





000
SAUS43 KUNR 282357
MTR2WX
METAR K2WX 282356Z AUTO 33011G18KT 300V360 16/11 A2988 RMK AO1
SLP109 P0002 60004 T01610106 10228 20161 53006





000
SAUS43 KUNR 282357
MTR2WX
METAR K2WX 282356Z AUTO 33011G18KT 300V360 16/11 A2988 RMK AO1
SLP109 P0002 60004 T01610106 10228 20161 53006





000
SAUS43 KUNR 282257
MTRD07
METAR KD07 282256Z AUTO 08010KT 17/14 A2988 RMK AO1 SLP117 P0002
T01670139





000
SAUS43 KUNR 282257
MTR2WX
METAR K2WX 282256Z AUTO 12004KT 19/13 A2984 RMK AO1 SLP095 P0001
T01940128





000
SAUS43 KUNR 282204 COR
MTRD07
METAR KD07 282156Z AUTO 33005KT 16/13 A2991 RMK AO1 PK WND
31029/2106 SLP128 P0022 T01560133





000
SAUS43 KUNR 282202 COR
MTRD07
METAR KD07 282156Z AUTO 33005KT 16/13 A2991 RMK AO1 PK WND
31029/2106 SLP128 P0022 T01560133





000
SAUS43 KUNR 282159 COR
MTRD07
METAR KD07 282156Z AUTO 33005KT 16/13 A2991 RMK AO1 PK WND
31029/2106 SLP128 P0022 T01560133





000
SAUS43 KUNR 282158
MTR2WX
METAR K2WX 282156Z AUTO 30013KT 20/12 A2985 RMK AO1 SLP099 T02000122





000
SAUS43 KUNR 282157
MTRD07
METAR KD07 282156Z AUTO 33005KT 16/13 A2991 RMK AO1 PK WND
31029/2106 SLP128 P0022 T01560133





000
SAUS43 KUNR 282102 COR
MTRD07
METAR KD07 282056Z AUTO 31018G29KT 16/13 A2990 RMK AO1 PK WND
31032/2035 WSHFT 2031 PRESRR SLP124 T01560128 53004





000
SAUS43 KUNR 282100 COR
MTRD07
METAR KD07 282056Z AUTO 31018G29KT 16/13 A2990 RMK AO1 PK WND
31032/2035 WSHFT 2031 PRESRR SLP124 T01560128 53004





000
SAUS43 KUNR 282058
MTR2WX
METAR K2WX 282056Z AUTO 35007KT 21/12 A2986 RMK AO1 SLP099 P0001
60001 T02110122 58004





000
SAUS43 KUNR 282057
MTRD07
METAR KD07 282056Z AUTO 31018G29KT 16/13 A2990 RMK AO1 PK WND
31032/2035 WSHFT 2031 PRESRR SLP124 T01560128 53004





000
SAUS43 KUNR 282053
MTRD07
SPECI KD07 282051Z AUTO 31022G31KT 16/13 A2989 RMK AO1 PK WND
31032/2035 WSHFT 2031





000
SAUS43 KUNR 281957
MTR2WX
METAR K2WX 281956Z AUTO 33015KT 22/10 A2985 RMK AO1 SLP098 T02170100





000
SAUS43 KUNR 281957
MTRD07
METAR KD07 281956Z AUTO 02006KT 23/12 A2988 RMK AO1 SLP109 T02330122





000
SAUS43 KUNR 281858
MTRD07
METAR KD07 281856Z AUTO 04009KT 24/13 A2989 RMK AO1 SLP112 T02440128





000
SAUS43 KUNR 281857
MTR2WX
METAR K2WX 281856Z AUTO 33007KT 22/10 A2988 RMK AO1 SLP106 T02170100





000
SAUS43 KUNR 281757
MTRD07
METAR KD07 281756Z AUTO VRB03KT 23/13 A2992 RMK AO1 SLP121 60001
T02330128 10233 20122 55002





000
SAUS43 KUNR 281757
MTR2WX
METAR K2WX 281756Z AUTO 31017KT 21/11 A2987 RMK AO1 SLP104 T02110111
10211 20128 56002





000
SAUS43 KUNR 281757
MTRD07
METAR KD07 281756Z AUTO VRB03KT 23/13 A2992 RMK AO1 SLP121 60001
T02330128 10233 20122 55002





000
SAUS43 KUNR 281757
MTR2WX
METAR K2WX 281756Z AUTO 31017KT 21/11 A2987 RMK AO1 SLP104 T02110111
10211 20128 56002





000
SAUS43 KUNR 281658
MTR2WX
METAR K2WX 281656Z AUTO 32013KT 21/12 A2987 RMK AO1 SLP104 T02060117





000
SAUS43 KUNR 281658
MTR2WX
METAR K2WX 281656Z AUTO 32013KT 21/12 A2987 RMK AO1 SLP104 T02060117





000
SAUS43 KUNR 281657
MTRD07
METAR KD07 281656Z AUTO 01007KT 22/12 A2991 RMK AO1 SLP120 T02220122





000
SAUS43 KUNR 281558
MTRD07
METAR KD07 281556Z AUTO 35004KT 20/14 A2990 RMK AO1 SLP119 T02000139





000
SAUS43 KUNR 281558
MTR2WX
METAR K2WX 281556Z AUTO 31014KT 20/13 A2987 RMK AO1 SLP105 T02000128





000
SAUS43 KUNR 281558
MTRD07
METAR KD07 281556Z AUTO 35004KT 20/14 A2990 RMK AO1 SLP119 T02000139





000
SAUS43 KUNR 281500
MTR2WX
METAR K2WX 281456Z AUTO 31010KT 18/13 A2987 RMK AO1 SLP107 T01830133
53003





000
SAUS43 KUNR 281458
MTRD07
METAR KD07 281456Z AUTO 02003KT 17/13 A2992 RMK AO1 SLP129 P0001
60001 T01720133 53012





000
SAUS43 KUNR 281400
MTR2WX
METAR K2WX 281356Z AUTO 27009KT 17/14 A2987 RMK AO1 SLP104 T01670139





000
SAUS43 KUNR 281400
MTR2WX
METAR K2WX 281356Z AUTO 27009KT 17/14 A2987 RMK AO1 SLP104 T01670139





000
SAUS43 KUNR 281357
MTRD07
METAR KD07 281356Z AUTO 36008KT 15/13 A2990 RMK AO1 SLP122 T01500128





000
SAUS43 KUNR 281357
MTRD07
METAR KD07 281356Z AUTO 36008KT 15/13 A2990 RMK AO1 SLP122 T01500128





000
SAUS43 KUNR 281300
MTR2WX
METAR K2WX 281256Z AUTO 26005KT 14/12 A2986 RMK AO1 SLP106 T01390122





000
SAUS43 KUNR 281257
MTRD07
METAR KD07 281256Z AUTO 02008KT 13/12 A2988 RMK AO1 SLP115 T01330122





000
SAUS43 KUNR 281203 COR
MTR2WX
METAR K2WX 281156Z AUTO 30004KT 13/12 A2986 RMK AO1 SLP108 70003
T01330117 10133 20106 51001





000
SAUS43 KUNR 281201 COR
MTR2WX
METAR K2WX 281156Z AUTO 30004KT 13/12 A2986 RMK AO1 SLP108 70003
T01330117 10133 20106 51001





000
SAUS43 KUNR 281157
MTRD07
METAR KD07 281156Z AUTO 01007KT 12/11 A2988 RMK AO1 SLP118 70010
T01220111 10139 20106 50002





000
SAUS43 KUNR 281157
MTRD07
METAR KD07 281156Z AUTO 01007KT 12/11 A2988 RMK AO1 SLP118 70010
T01220111 10139 20106 50002





000
SAUS43 KUNR 281101
MTR2WX
METAR K2WX 281056Z AUTO 30007KT 12/11 A2986 RMK AO1 SLP109 T01220111





000
SAUS43 KUNR 281101
MTR2WX
METAR K2WX 281056Z AUTO 30007KT 12/11 A2986 RMK AO1 SLP109 T01220111





000
SAUS43 KUNR 281058
MTRD07
METAR KD07 281056Z AUTO 24008KT 11/10 A2991 RMK AO1 SLP130 T01110100





000
SAUS43 KUNR 281000
MTR2WX
METAR K2WX 280956Z AUTO 26006KT 12/11 A2987 RMK AO1 SLP102 T01170106





000
SAUS43 KUNR 280957
MTRD07
METAR KD07 280956Z AUTO 33006KT 11/10 A2989 RMK AO1 SLP121 T01110100





000
SAUS43 KUNR 280901
MTR2WX
METAR K2WX 280856Z AUTO 25004KT 12/11 A2986 RMK AO1 SLP098 T01220111
55002





000
SAUS43 KUNR 280901
MTR2WX
METAR K2WX 280856Z AUTO 25004KT 12/11 A2986 RMK AO1 SLP098 T01220111
55002





000
SAUS43 KUNR 280857
MTRD07
METAR KD07 280856Z AUTO 19008KT 13/12 A2988 RMK AO1 SLP112 T01280117
56010





000
SAUS43 KUNR 280857
MTRD07
METAR KD07 280856Z AUTO 19008KT 13/12 A2988 RMK AO1 SLP112 T01280117
56010





000
SAUS43 KUNR 280800
MTR2WX
METAR K2WX 280756Z AUTO 31006KT 12/11 A2985 RMK AO1 SLP095 T01170111





000
SAUS43 KUNR 280758
MTRD07
METAR KD07 280756Z AUTO 18010KT 13/11 A2988 RMK AO1 SLP111 T01280111





000
SAUS43 KUNR 280700
MTR2WX
METAR K2WX 280656Z AUTO 30005KT 11/11 A2986 RMK AO1 SLP101 T01110106
402440106





000
SAUS43 KUNR 280658
MTRD07
METAR KD07 280656Z AUTO 16011KT 13/12 A2990 RMK AO1 SLP116 T01280117
402390100





000
SAUS43 KUNR 280601
MTR2WX
METAR K2WX 280556Z AUTO 00000KT 12/12 A2987 RMK AO1 SLP102 T01220117
10156 20117 58007





000
SAUS43 KUNR 280601
MTR2WX
METAR K2WX 280556Z AUTO 00000KT 12/12 A2987 RMK AO1 SLP102 T01220117
10156 20117 58007





000
SAUS43 KUNR 280557
MTRD07
METAR KD07 280556Z AUTO 15012KT 14/12 A2991 RMK AO1 SLP120 T01390117
10172 20133 58002





000
SAUS43 KUNR 280557
MTRD07
METAR KD07 280556Z AUTO 15012KT 14/12 A2991 RMK AO1 SLP120 T01390117
10172 20133 58002





000
SAUS43 KUNR 280501
MTR2WX
METAR K2WX 280456Z AUTO 03005KT 12/12 A2989 RMK AO1 SLP109 T01220117





000
SAUS43 KUNR 280501
MTR2WX
METAR K2WX 280456Z AUTO 03005KT 12/12 A2989 RMK AO1 SLP109 T01220117





000
SAUS43 KUNR 280457
MTRD07
METAR KD07 280456Z AUTO 16012KT 14/12 A2993 RMK AO1 SLP126 T01390117





000
SAUS43 KUNR 280401
MTR2WX
METAR K2WX 280356Z AUTO 06006KT 13/12 A2990 RMK AO1 SLP113 T01330122





000
SAUS43 KUNR 280357
MTRD07
METAR KD07 280356Z AUTO 15012KT 14/12 A2993 RMK AO1 SLP128 T01440117





000
SAUS43 KUNR 280300
MTR2WX
METAR K2WX 280256Z AUTO 08006KT 14/13 A2989 RMK AO1 SLP111 T01390128
53007





000
SAUS43 KUNR 280300
MTR2WX
METAR K2WX 280256Z AUTO 08006KT 14/13 A2989 RMK AO1 SLP111 T01390128
53007





000
SAUS43 KUNR 280258
MTRD07
METAR KD07 280256Z AUTO 14010KT 15/13 A2992 RMK AO1 SLP124 T01500128
53000





000
SAUS43 KUNR 280200
MTR2WX
METAR K2WX 280156Z AUTO 09008KT 15/13 A2987 RMK AO1 SLP108 T01500128





000
SAUS43 KUNR 280200
MTR2WX
METAR K2WX 280156Z AUTO 09008KT 15/13 A2987 RMK AO1 SLP108 T01500128





000
SAUS43 KUNR 280157
MTRD07
METAR KD07 280156Z AUTO 13011KT 17/13 A2990 RMK AO1 SLP120 T01670128





000
SAUS43 KUNR 280101
MTR2WX
METAR K2WX 280056Z AUTO 06007KT 14/13 A2987 RMK AO1 SLP110 T01440133





000
SAUS43 KUNR 280057
MTRD07
METAR KD07 280056Z AUTO 13016G21KT 17/13 A2991 RMK AO1 SLP124
T01720133





000
SAUS43 KUNR 280057
MTRD07
METAR KD07 280056Z AUTO 13016G21KT 17/13 A2991 RMK AO1 SLP124
T01720133





000
SAUS43 KUNR 280001 COR
MTR2WX
METAR K2WX 272356Z AUTO 02005KT 14/13 A2987 RMK AO1 SLP112 P0003
60003 T01440128 10244 20139 50005





000
SAUS43 KUNR 280001 COR
MTR2WX
METAR K2WX 272356Z AUTO 02005KT 14/13 A2987 RMK AO1 SLP112 P0003
60003 T01440128 10244 20139 50005





000
SAUS43 KUNR 280000
MTR2WX
METAR K2WX 272356Z AUTO 02005KT 14/13 A2987 RMK AO1 SLP112 P0003
60003 T01440128 10244 20139 50005





000
SAUS43 KUNR 280000
MTR2WX
METAR K2WX 272356Z AUTO 02005KT 14/13 A2987 RMK AO1 SLP112 P0003
60003 T01440128 10244 20139 50005





000
SAUS43 KUNR 272358
MTRD07
METAR KD07 272356Z AUTO 12010KT 17/13 A2992 RMK AO1 WSHFT 2245
SLP130 P0002 60010 T01670133 10239 20161 58008





000
SAUS43 KUNR 272306
MTRD07
SPECI KD07 272305Z AUTO 15008KT 16/13 A2995 RMK AO1 WSHFT 2245
T01610133





000
SAUS43 KUNR 272301
MTR2WX
METAR K2WX 272256Z AUTO 33008KT 14/12 A2991 RMK AO1 SLP124 T01390122





000
SAUS43 KUNR 272301
MTR2WX
METAR K2WX 272256Z AUTO 33008KT 14/12 A2991 RMK AO1 SLP124 T01390122





000
SAUS43 KUNR 272257
MTRD07
METAR KD07 272256Z AUTO 16010KT 16/13 A2995 RMK AO1 SLP144 P0006
T01610133





000
SAUS43 KUNR 272257
MTRD07
METAR KD07 272256Z AUTO 16010KT 16/13 A2995 RMK AO1 SLP144 P0006
T01610133





000
SAUS43 KUNR 272201
MTR2WX
METAR K2WX 272156Z AUTO 18011G19KT 22/11 A2983 RMK AO1 SLP091
T02220106





000
SAUS43 KUNR 272157
MTRD07
METAR KD07 272156Z AUTO 18015G24KT 18/14 A2994 RMK AO1 SLP136 P0002
T01780139





000
SAUS43 KUNR 272101
MTR2WX
METAR K2WX 272056Z AUTO 16010G20KT 23/11 A2985 RMK AO1 SLP097
T02330106





000
SAUS43 KUNR 272057
MTRD07
METAR KD07 272056Z AUTO 15014G23KT 20/12 A2994 RMK AO1 SLP136
T02000117 56007





000
SAUS43 KUNR 272057
MTRD07
METAR KD07 272056Z AUTO 15014G23KT 20/12 A2994 RMK AO1 SLP136
T02000117 56007





000
SAUS43 KUNR 272000
MTR2WX
METAR K2WX 271956Z AUTO 16011KT 23/12 A2986 RMK AO1 SLP097 T02330122
$





000
SAUS43 KUNR 272000
MTR2WX
METAR K2WX 271956Z AUTO 16011KT 23/12 A2986 RMK AO1 SLP097 T02330122
$





000
SAUS43 KUNR 271957
MTRD07
METAR KD07 271956Z AUTO 16016G24KT 22/11 A2994 RMK AO1 PK WND
15026/1916 SLP137 T02220111





000
SAUS43 KUNR 271957
MTRD07
METAR KD07 271956Z AUTO 16016G24KT 22/11 A2994 RMK AO1 PK WND
15026/1916 SLP137 T02220111





000
SAUS43 KUNR 271901
MTR2WX
METAR K2WX 271856Z AUTO 17008KT 22/12 A2988 RMK AO1 SLP107 T02170117





000
SAUS43 KUNR 271858
MTRD07
METAR KD07 271856Z AUTO 17018G24KT 22/11 A2996 RMK AO1 SLP138
T02220111





000
SAUS43 KUNR 271800
MTR2WX
METAR K2WX 271756Z AUTO 15006KT 22/12 A2989 RMK AO1 SLP112 T02170117
10217 20111 56003





000
SAUS43 KUNR 271757
MTRD07
METAR KD07 271756Z AUTO 17016KT 22/12 A2997 RMK AO1 SLP139 T02220117
10228 20117 58004





000
SAUS43 KUNR 271700
MTR2WX
METAR K2WX 271656Z AUTO VRB06KT 22/11 A2990 RMK AO1 SLP112 T02170111





000
SAUS43 KUNR 271657
MTRD07
METAR KD07 271656Z AUTO 18016KT 22/11 A2997 RMK AO1 SLP142 T02220111





000
SAUS43 KUNR 271600
MTR2WX
METAR K2WX 271556Z AUTO 17008KT 21/11 A2990 RMK AO1 SLP111 T02060111





000
SAUS43 KUNR 271600
MTR2WX
METAR K2WX 271556Z AUTO 17008KT 21/11 A2990 RMK AO1 SLP111 T02060111





000
SAUS43 KUNR 271557
MTRD07
METAR KD07 271556Z AUTO 18015KT 22/11 A2997 RMK AO1 SLP142 T02170111





000
SAUS43 KUNR 271501
MTR2WX
METAR K2WX 271456Z AUTO 14006KT 19/12 A2990 RMK AO1 SLP113 T01890117
50000





000
SAUS43 KUNR 271458
MTRD07
METAR KD07 271456Z AUTO 20013KT 19/11 A2998 RMK AO1 SLP145 T01940106
52002





000
SAUS43 KUNR 271458
MTRD07
METAR KD07 271456Z AUTO 20013KT 19/11 A2998 RMK AO1 SLP145 T01940106
52002





000
SAUS43 KUNR 271401
MTR2WX
METAR K2WX 271356Z AUTO 17003KT 15/11 A2991 RMK AO1 SLP116 T01500106





000
SAUS43 KUNR 271357
MTRD07
METAR KD07 271356Z AUTO 18009KT 17/09 A2998 RMK AO1 SLP143 T01720094





000
SAUS43 KUNR 271357
MTRD07
METAR KD07 271356Z AUTO 18009KT 17/09 A2998 RMK AO1 SLP143 T01720094





000
SAUS43 KUNR 271303
MTR2WX
METAR K2WX 271256Z AUTO 21004KT 12/09 A2991 RMK AO1 SLP119 T01220089





000
SAUS43 KUNR 271257
MTRD07
METAR KD07 271256Z AUTO 16009KT 14/09 A2997 RMK AO1 SLP142 T01440089





000
SAUS43 KUNR 271257
MTRD07
METAR KD07 271256Z AUTO 16009KT 14/09 A2997 RMK AO1 SLP142 T01440089





000
SAUS43 KUNR 271203
MTR2WX
METAR K2WX 271156Z AUTO 15005KT 11/08 A2990 RMK AO1 SLP116 T01110083
10122 20106 52002





000
SAUS43 KUNR 271203
MTR2WX
METAR K2WX 271156Z AUTO 15005KT 11/08 A2990 RMK AO1 SLP116 T01110083
10122 20106 52002





000
SAUS43 KUNR 271158
MTRD07
METAR KD07 271156Z AUTO 16010KT 12/07 A2997 RMK AO1 SLP143 T01220072
10144 20100 53002





000
SAUS43 KUNR 271158
MTRD07
METAR KD07 271156Z AUTO 16010KT 12/07 A2997 RMK AO1 SLP143 T01220072
10144 20100 53002





000
SAUS43 KUNR 271103
MTR2WX
METAR K2WX 271056Z AUTO 17005KT 11/08 A2990 RMK AO1 SLP115 T01110078





000
SAUS43 KUNR 271103
MTR2WX
METAR K2WX 271056Z AUTO 17005KT 11/08 A2990 RMK AO1 SLP115 T01110078





000
SAUS43 KUNR 271057
MTRD07
METAR KD07 271056Z AUTO 16011KT 11/07 A2997 RMK AO1 SLP143 T01060067





000
SAUS43 KUNR 271057
MTRD07
METAR KD07 271056Z AUTO 16011KT 11/07 A2997 RMK AO1 SLP143 T01060067





000
SAUS43 KUNR 271003
MTR2WX
METAR K2WX 270956Z AUTO 17003KT 12/08 A2990 RMK AO1 SLP114 T01170078





000
SAUS43 KUNR 270957
MTRD07
METAR KD07 270956Z AUTO 16009KT 12/07 A2996 RMK AO1 SLP140 T01170067





000
SAUS43 KUNR 270903
MTR2WX
METAR K2WX 270856Z AUTO 12003KT 11/07 A2990 RMK AO1 SLP113 T01110072
55001





000
SAUS43 KUNR 270857
MTRD07
METAR KD07 270856Z AUTO 16010KT 12/07 A2996 RMK AO1 SLP141 T01220067
55001





000
SAUS43 KUNR 270803
MTR2WX
METAR K2WX 270756Z AUTO 00000KT 12/07 A2990 RMK AO1 SLP113 T01170072





000
SAUS43 KUNR 270757
MTRD07
METAR KD07 270756Z AUTO 17007KT 10/07 A2996 RMK AO1 SLP144 T01000067





000
SAUS43 KUNR 270703
MTR2WX
METAR K2WX 270656Z AUTO 11005KT 12/07 A2989 RMK AO1 SLP112 T01170072
402330056





000
SAUS43 KUNR 270703
MTR2WX
METAR K2WX 270656Z AUTO 11005KT 12/07 A2989 RMK AO1 SLP112 T01170072
402330056





000
SAUS43 KUNR 270657
MTRD07
METAR KD07 270656Z AUTO 19007KT 12/07 A2996 RMK AO1 SLP140 T01170067
402330089





000
SAUS43 KUNR 270603
MTR2WX
METAR K2WX 270556Z AUTO 08007KT 11/08 A2990 RMK AO1 SLP116 T01110078
10217 20111 50004





000
SAUS43 KUNR 270603
MTR2WX
METAR K2WX 270556Z AUTO 08007KT 11/08 A2990 RMK AO1 SLP116 T01110078
10217 20111 50004





000
SAUS43 KUNR 270557
MTRD07
METAR KD07 270556Z AUTO 20006KT 14/07 A2997 RMK AO1 SLP141 T01440067
10222 20128 51007





000
SAUS43 KUNR 270503
MTR2WX
METAR K2WX 270456Z AUTO 11007KT 13/08 A2990 RMK AO1 SLP118 T01280083





000
SAUS43 KUNR 270503
MTR2WX
METAR K2WX 270456Z AUTO 11007KT 13/08 A2990 RMK AO1 SLP118 T01280083





000
SAUS43 KUNR 270457
MTRD07
METAR KD07 270456Z AUTO 21005KT 14/07 A2997 RMK AO1 SLP144 T01440072





    US Dept of Commerce
    National Oceanic and Atmospheric Administration
    National Weather Service
    1325 East West Highway
    Silver Spring, MD 20910
    Page Author: NWS Internet Services Team
Disclaimer
Information Quality
Credits
Glossary
Privacy Policy
Freedom of Information Act (FOIA)
About Us
Career Opportunities